createdAt,value
2017-09-22T03:30:20.092Z,35.15
2017-09-22T03:32:47.734Z,35.47
2017-09-22T03:35:15.389Z,37.10
2017-09-22T03:37:43.810Z,35.90
2017-09-22T03:40:11.398Z,32.70
2017-09-22T03:42:39.085Z,36.10
2017-09-22T03:45:07.458Z,34.20
2017-09-22T03:47:35.844Z,31.92
2017-09-22T03:50:03.494Z,34.38
2017-09-22T03:52:31.846Z,28.85
2017-09-22T03:54:59.439Z,33.05
2017-09-22T03:57:27.829Z,32.00
2017-09-22T03:59:55.474Z,27.45
2017-09-22T04:02:23.830Z,31.55
2017-09-22T04:04:51.514Z,33.63
2017-09-22T04:07:19.899Z,30.02
2017-09-22T04:09:48.254Z,32.92
2017-09-22T04:12:15.927Z,32.35
2017-09-22T04:14:44.282Z,31.10
2017-09-22T04:17:11.870Z,32.72
2017-09-22T04:19:39.522Z,37.58
2017-09-22T04:22:07.873Z,35.20
2017-09-22T04:24:35.514Z,32.13
2017-09-22T04:27:03.098Z,36.45
2017-09-22T04:29:30.685Z,29.65
2017-09-22T04:31:59.061Z,33.40
2017-09-22T04:34:27.413Z,32.92
2017-09-22T04:36:55.090Z,43.13
2017-09-22T04:39:23.526Z,33.22
2017-09-22T04:41:51.113Z,32.00
2017-09-22T04:44:18.718Z,34.08
2017-09-22T04:46:46.302Z,29.77
2017-09-22T04:49:14.109Z,30.35
2017-09-22T04:51:42.458Z,31.52
2017-09-22T04:54:10.046Z,28.90
2017-09-22T04:56:38.532Z,30.10
2017-09-22T04:59:06.881Z,34.10
2017-09-22T05:01:34.594Z,31.25
2017-09-22T05:04:02.231Z,35.13
2017-09-22T05:06:30.581Z,34.88
2017-09-22T05:08:59.678Z,37.75
2017-09-22T05:11:27.349Z,30.65
2017-09-22T05:13:55.738Z,34.60
2017-09-22T05:16:24.105Z,35.15
2017-09-22T05:18:52.690Z,38.15
2017-09-22T05:21:21.049Z,38.30
2017-09-22T05:23:48.730Z,28.33
2017-09-22T05:26:17.312Z,23.45
2017-09-22T05:28:45.690Z,21.23
2017-09-22T05:31:14.045Z,23.40
2017-09-22T05:33:41.662Z,27.83
2017-09-22T05:36:09.254Z,32.58
2017-09-22T05:38:36.846Z,25.92
2017-09-22T05:41:05.322Z,28.38
2017-09-22T05:43:33.679Z,31.20
2017-09-22T05:46:01.334Z,23.65
2017-09-22T05:48:28.954Z,28.70
2017-09-22T05:50:56.579Z,32.78
2017-09-22T05:53:24.954Z,40.20
2017-09-22T05:55:53.434Z,40.58
2017-09-22T05:58:21.813Z,38.60
2017-09-22T06:00:50.166Z,43.10
2017-09-22T06:03:17.849Z,34.30
2017-09-22T06:05:46.206Z,44.63
2017-09-22T06:08:13.801Z,37.85
2017-09-22T06:10:41.650Z,38.70
2017-09-22T06:13:09.999Z,35.65
2017-09-22T06:15:37.592Z,34.40
2017-09-22T06:18:06.270Z,37.38
2017-09-22T06:20:34.650Z,41.47
2017-09-22T06:23:02.245Z,33.33
2017-09-22T06:25:29.858Z,26.27
2017-09-22T06:27:58.246Z,27.62
2017-09-22T06:30:26.615Z,21.55
2017-09-22T06:32:55.022Z,16.00
2017-09-22T06:35:22.626Z,25.37
2017-09-22T06:37:50.218Z,18.48
2017-09-22T06:40:18.605Z,32.80
2017-09-22T06:42:46.199Z,19.80
2017-09-22T06:45:13.789Z,20.62
2017-09-22T06:47:42.222Z,32.58
2017-09-22T06:50:10.770Z,28.25
2017-09-22T06:52:39.155Z,31.95
2017-09-22T06:55:09.103Z,33.95
2017-09-22T06:57:36.697Z,34.92
2017-09-22T07:00:04.377Z,39.08
2017-09-22T07:02:32.810Z,40.55
2017-09-22T07:05:00.521Z,38.35
2017-09-22T07:07:28.902Z,39.25
2017-09-22T07:09:57.266Z,40.28
2017-09-22T07:12:25.626Z,38.90
2017-09-22T07:14:53.314Z,39.35
2017-09-22T07:17:21.669Z,31.45
2017-09-22T07:19:49.270Z,33.63
2017-09-22T07:22:18.962Z,35.65
2017-09-22T07:24:46.725Z,38.05
2017-09-22T07:27:15.082Z,41.45
2017-09-22T07:29:42.756Z,39.55
2017-09-22T07:32:11.114Z,42.22
2017-09-22T07:34:38.802Z,40.67
2017-09-22T07:37:07.224Z,37.20
2017-09-22T07:39:34.810Z,40.85
2017-09-22T07:42:02.402Z,36.63
2017-09-22T07:44:30.019Z,45.28
2017-09-22T07:46:57.610Z,46.47
2017-09-22T07:49:26.014Z,43.00
2017-09-22T07:51:53.605Z,43.22
2017-09-22T07:54:21.958Z,48.58
2017-09-22T07:56:49.570Z,48.47
2017-09-22T07:59:17.166Z,52.10
2017-09-22T08:01:44.761Z,46.55
2017-09-22T08:04:12.501Z,57.17
2017-09-22T08:06:40.089Z,46.60
2017-09-22T08:09:07.674Z,54.50
2017-09-22T08:11:36.049Z,46.97
2017-09-22T08:14:04.402Z,47.00
2017-09-22T08:16:32.037Z,55.42
2017-09-22T08:18:59.630Z,53.63
2017-09-22T08:21:27.217Z,53.75
2017-09-22T08:23:55.617Z,53.78
2017-09-22T08:26:23.302Z,48.72
2017-09-22T08:28:50.890Z,51.58
2017-09-22T08:31:18.678Z,44.85
2017-09-22T08:33:47.038Z,50.15
2017-09-22T08:36:14.626Z,48.80
2017-09-22T08:38:42.246Z,39.47
2017-09-22T08:41:09.842Z,44.00
2017-09-22T08:43:37.430Z,45.67
2017-09-22T08:46:05.058Z,46.10
2017-09-22T08:48:32.654Z,50.55
2017-09-22T08:51:00.241Z,49.55
2017-09-22T08:53:28.133Z,48.33
2017-09-22T08:55:56.490Z,44.92
2017-09-22T08:58:24.083Z,44.15
2017-09-22T09:00:51.702Z,47.97
2017-09-22T09:03:19.292Z,49.83
2017-09-22T09:05:46.929Z,48.30
2017-09-22T09:08:14.818Z,42.67
2017-09-22T09:10:42.415Z,44.30
2017-09-22T09:13:10.790Z,46.90
2017-09-22T09:15:38.422Z,47.67
2017-09-22T09:18:06.014Z,46.83
2017-09-22T09:20:33.605Z,42.45
2017-09-22T09:23:01.241Z,47.38
2017-09-22T09:25:28.845Z,50.30
2017-09-22T09:27:56.442Z,45.75
2017-09-22T09:30:24.078Z,44.58
2017-09-22T09:32:51.670Z,46.03
2017-09-22T09:35:19.261Z,47.42
2017-09-22T09:37:46.879Z,46.17
2017-09-22T09:40:14.473Z,40.00
2017-09-22T09:42:42.365Z,43.07
2017-09-22T09:45:10.725Z,45.47
2017-09-22T09:47:39.085Z,48.45
2017-09-22T09:50:06.730Z,44.90
2017-09-22T09:52:34.327Z,49.10
2017-09-22T09:55:02.685Z,42.95
2017-09-22T09:57:30.334Z,41.73
2017-09-22T09:59:57.918Z,46.80
2017-09-22T10:02:26.273Z,55.03
2017-09-22T10:04:53.922Z,50.60
2017-09-22T10:07:21.518Z,48.10
2017-09-22T10:09:49.122Z,44.67
2017-09-22T10:12:16.866Z,43.57
2017-09-22T10:14:44.449Z,44.40
2017-09-22T10:17:12.043Z,49.00
2017-09-22T10:19:39.666Z,41.80
2017-09-22T10:22:07.249Z,46.53
2017-09-22T10:24:34.862Z,41.13
2017-09-22T10:27:02.445Z,38.93
2017-09-22T10:29:30.042Z,38.13
2017-09-22T10:31:57.694Z,42.13
2017-09-22T10:34:25.281Z,38.47
2017-09-22T10:36:53.638Z,41.17
2017-09-22T10:39:21.272Z,40.80
2017-09-22T10:41:48.861Z,39.97
2017-09-22T10:44:16.453Z,33.13
2017-09-22T10:46:44.225Z,34.53
2017-09-22T10:49:11.820Z,33.57
2017-09-22T10:51:39.416Z,35.50
2017-09-22T10:54:07.822Z,37.27
2017-09-22T10:56:35.407Z,37.90
2017-09-22T10:59:03.009Z,39.00
2017-09-22T11:01:31.394Z,29.73
2017-09-22T11:03:59.746Z,32.10
2017-09-22T11:06:27.334Z,37.33
2017-09-22T11:08:55.730Z,31.73
2017-09-22T11:11:23.328Z,33.90
2017-09-22T11:13:50.921Z,40.27
2017-09-22T11:16:19.300Z,33.40
2017-09-22T11:18:47.650Z,32.67
2017-09-22T11:21:15.294Z,42.70
2017-09-22T11:23:42.882Z,31.00
2017-09-22T11:26:10.467Z,36.10
2017-09-22T11:28:38.080Z,29.93
2017-09-22T11:31:05.175Z,28.33
2017-09-22T11:33:32.766Z,40.33
2017-09-22T11:36:00.538Z,40.23
2017-09-22T11:38:28.130Z,37.90
2017-09-22T11:40:56.486Z,38.70
2017-09-22T11:43:24.093Z,43.53
2017-09-22T11:45:51.678Z,42.43
2017-09-22T11:48:19.270Z,38.83
2017-09-22T11:50:46.924Z,37.00
2017-09-22T11:53:14.531Z,40.73
2017-09-22T11:55:42.146Z,38.30
2017-09-22T11:58:10.099Z,37.47
2017-09-22T12:00:37.690Z,34.57
2017-09-22T12:03:06.130Z,38.37
2017-09-22T12:05:33.762Z,41.90
2017-09-22T12:08:01.374Z,39.43
2017-09-22T12:10:28.961Z,40.37
2017-09-22T12:12:57.362Z,42.70
2017-09-22T12:15:24.949Z,39.07
2017-09-22T12:17:52.544Z,37.37
2017-09-22T12:20:20.953Z,41.30
2017-09-22T12:22:48.639Z,35.73
2017-09-22T12:25:16.226Z,36.67
2017-09-22T12:27:43.954Z,40.57
2017-09-22T12:30:11.543Z,34.90
2017-09-22T12:32:39.148Z,36.10
2017-09-22T12:35:06.774Z,39.23
2017-09-22T12:37:34.359Z,41.50
2017-09-22T12:40:01.951Z,44.10
2017-09-22T12:42:29.565Z,37.23
2017-09-22T12:44:57.921Z,31.43
2017-09-22T12:47:25.531Z,34.30
2017-09-22T12:49:53.127Z,38.43
2017-09-22T12:52:20.722Z,29.63
2017-09-22T12:54:49.305Z,33.90
2017-09-22T12:57:17.659Z,31.70
2017-09-22T12:59:45.246Z,31.83
2017-09-22T13:02:13.639Z,34.40
2017-09-22T13:04:41.222Z,29.87
2017-09-22T13:07:08.834Z,31.10
2017-09-22T13:09:37.238Z,29.27
2017-09-22T13:12:04.822Z,27.33
2017-09-22T13:14:32.410Z,31.37
2017-09-22T13:17:00.018Z,24.50
2017-09-22T13:19:27.606Z,24.70
2017-09-22T13:21:55.261Z,36.40
2017-09-22T13:24:22.857Z,30.17
2017-09-22T13:26:51.215Z,40.13
2017-09-22T13:29:18.842Z,29.17
2017-09-22T13:31:46.434Z,27.30
2017-09-22T13:34:14.051Z,30.73
2017-09-22T13:36:41.686Z,29.47
2017-09-22T13:39:10.849Z,31.33
2017-09-22T13:41:38.437Z,33.80
2017-09-22T13:44:06.837Z,31.90
2017-09-22T13:46:34.676Z,29.23
2017-09-22T13:49:03.042Z,24.73
2017-09-22T13:51:31.446Z,22.60
2017-09-22T13:53:59.034Z,24.03
2017-09-22T13:56:26.621Z,22.60
2017-09-22T13:58:54.266Z,24.17
2017-09-22T14:01:21.862Z,27.00
2017-09-22T14:03:50.225Z,22.90
2017-09-22T14:06:18.011Z,21.90
2017-09-22T14:08:46.373Z,18.70
2017-09-22T14:11:13.962Z,25.53
2017-09-22T14:13:41.590Z,20.07
2017-09-22T14:16:09.178Z,23.50
2017-09-22T14:18:36.770Z,19.23
2017-09-22T14:21:04.390Z,19.50
2017-09-22T14:23:31.987Z,18.83
2017-09-22T14:25:59.682Z,23.70
2017-09-22T14:28:27.271Z,15.03
2017-09-22T14:30:54.862Z,14.87
2017-09-22T14:33:22.630Z,21.07
2017-09-22T14:35:50.391Z,15.40
2017-09-22T14:38:17.975Z,16.87
2017-09-22T14:40:45.594Z,18.87
2017-09-22T14:43:13.182Z,17.97
2017-09-22T14:45:40.770Z,15.17
2017-09-22T14:48:08.403Z,16.10
2017-09-22T14:50:35.989Z,16.30
2017-09-22T14:53:04.342Z,15.33
2017-09-22T14:55:31.957Z,16.60
2017-09-22T14:57:59.550Z,17.90
2017-09-22T15:00:27.140Z,15.30
2017-09-22T15:02:54.769Z,19.40
2017-09-22T15:05:22.355Z,15.27
2017-09-22T15:07:49.962Z,20.13
2017-09-22T15:10:17.796Z,15.93
2017-09-22T15:12:46.153Z,19.60
2017-09-22T15:15:13.757Z,19.20
2017-09-22T15:17:41.486Z,17.97
2017-09-22T15:20:09.846Z,17.20
2017-09-22T15:22:37.437Z,16.80
2017-09-22T15:25:05.078Z,17.40
2017-09-22T15:27:32.722Z,21.83
2017-09-22T15:30:00.307Z,20.70
2017-09-22T15:32:28.777Z,27.47
2017-09-22T15:34:57.213Z,20.03
2017-09-22T15:37:24.807Z,17.77
2017-09-22T15:39:52.690Z,19.90
2017-09-22T15:42:21.047Z,18.83
2017-09-22T15:44:48.641Z,19.50
2017-09-22T15:47:16.281Z,17.33
2017-09-22T15:49:44.632Z,16.80
2017-09-22T15:52:12.221Z,24.50
2017-09-22T15:54:40.622Z,16.20
2017-09-22T15:57:08.213Z,18.43
2017-09-22T15:59:35.810Z,15.33
2017-09-22T16:02:04.188Z,13.03
2017-09-22T16:04:32.545Z,17.20
2017-09-22T16:07:00.206Z,16.33
2017-09-22T16:09:28.730Z,14.30
2017-09-22T16:11:56.330Z,14.57
2017-09-22T16:14:23.921Z,16.83
2017-09-22T16:16:52.329Z,15.70
2017-09-22T16:19:19.914Z,14.17
2017-09-22T16:21:47.498Z,17.00
2017-09-22T16:24:15.393Z,17.50
2017-09-22T16:26:43.757Z,15.60
2017-09-22T16:29:12.114Z,14.90
2017-09-22T16:31:39.718Z,13.43
2017-09-22T16:34:07.310Z,16.27
2017-09-22T16:36:34.974Z,13.03
2017-09-22T16:39:02.573Z,15.20
2017-09-22T16:41:30.927Z,17.13
2017-09-22T16:43:59.346Z,16.17
2017-09-22T16:46:27.048Z,18.23
2017-09-22T16:48:54.719Z,15.23
2017-09-22T16:51:22.398Z,11.90
2017-09-22T16:53:49.995Z,20.30
2017-09-22T16:56:17.653Z,12.93
2017-09-22T16:58:45.261Z,18.42
2017-09-22T17:01:12.850Z,13.50
2017-09-22T17:03:41.225Z,17.12
2017-09-22T17:06:09.591Z,22.07
2017-09-22T17:08:37.191Z,16.55
2017-09-22T17:11:04.814Z,13.20
2017-09-22T17:13:33.276Z,21.20
2017-09-22T17:16:00.917Z,13.48
2017-09-22T17:18:28.542Z,18.85
2017-09-22T17:20:56.140Z,16.90
2017-09-22T17:23:23.777Z,15.10
2017-09-22T17:25:51.413Z,15.60
2017-09-22T17:28:19.011Z,16.40
2017-09-22T17:30:46.651Z,18.35
2017-09-22T17:33:14.258Z,18.25
2017-09-22T17:35:41.861Z,22.05
2017-09-22T17:38:09.514Z,15.70
2017-09-22T17:40:37.185Z,17.37
2017-09-22T17:43:04.782Z,16.67
2017-09-22T17:45:32.662Z,17.35
2017-09-22T17:48:00.275Z,18.90
2017-09-22T17:50:27.865Z,16.05
2017-09-22T17:52:55.839Z,14.98
2017-09-22T17:55:23.472Z,15.43
2017-09-22T17:57:51.070Z,14.80
2017-09-22T18:00:18.682Z,16.77
2017-09-22T18:02:46.270Z,13.30
2017-09-22T18:05:13.861Z,15.27
2017-09-22T18:07:42.246Z,15.10
2017-09-22T18:10:10.601Z,25.73
2017-09-22T18:12:38.202Z,17.15
2017-09-22T18:15:06.213Z,19.35
2017-09-22T18:17:33.813Z,18.45
2017-09-22T18:20:02.169Z,26.33
2017-09-22T18:22:29.785Z,17.30
2017-09-22T18:24:57.386Z,23.08
2017-09-22T18:27:24.982Z,23.10
2017-09-22T18:29:52.594Z,20.73
2017-09-22T18:32:20.190Z,23.70
2017-09-22T18:34:48.546Z,24.90
2017-09-22T18:37:16.459Z,26.10
2017-09-22T18:39:44.062Z,17.87
2017-09-22T18:42:11.666Z,16.73
2017-09-22T18:44:39.304Z,17.77
2017-09-22T18:47:07.667Z,17.85
2017-09-22T18:49:36.922Z,18.50
2017-09-22T18:52:04.689Z,20.05
2017-09-22T18:54:32.282Z,23.30
2017-09-22T18:56:59.869Z,22.13
2017-09-22T18:59:28.334Z,18.52
2017-09-22T19:01:56.702Z,23.45
2017-09-22T19:04:24.302Z,22.48
2017-09-22T19:06:51.930Z,22.15
2017-09-22T19:09:20.298Z,18.50
2017-09-22T19:11:47.890Z,23.80
2017-09-22T19:14:15.506Z,33.08
2017-09-22T19:16:43.098Z,27.70
2017-09-22T19:19:11.511Z,27.67
2017-09-22T19:21:39.103Z,23.62
2017-09-22T19:24:06.702Z,23.80
2017-09-22T19:26:34.313Z,22.58
2017-09-22T19:29:01.919Z,38.30
2017-09-22T19:31:31.881Z,20.45
2017-09-22T19:33:59.578Z,20.15
2017-09-22T19:36:27.937Z,26.45
2017-09-22T19:38:55.578Z,21.98
2017-09-22T19:41:23.177Z,26.40
2017-09-22T19:43:51.553Z,35.78
2017-09-22T19:46:20.133Z,35.97
2017-09-22T19:48:47.725Z,36.72
2017-09-22T19:51:15.323Z,36.05
2017-09-22T19:53:42.967Z,27.40
2017-09-22T19:56:10.553Z,31.37
2017-09-22T19:58:38.148Z,28.55
2017-09-22T20:01:06.007Z,21.92
2017-09-22T20:03:33.599Z,25.05
2017-09-22T20:06:01.186Z,24.00
2017-09-22T20:08:28.814Z,22.15
2017-09-22T20:10:56.406Z,29.63
2017-09-22T20:13:23.993Z,27.08
2017-09-22T20:15:51.862Z,24.35
2017-09-22T20:18:20.222Z,22.98
2017-09-22T20:20:47.810Z,21.50
2017-09-22T20:23:15.417Z,26.52
2017-09-22T20:25:43.046Z,25.67
2017-09-22T20:28:10.630Z,26.08
2017-09-22T20:30:38.234Z,29.87
2017-09-22T20:33:06.814Z,24.75
2017-09-22T20:35:34.483Z,32.10
2017-09-22T20:38:02.071Z,27.05
2017-09-22T20:40:29.707Z,35.30
2017-09-22T20:42:57.409Z,30.55
2017-09-22T20:45:25.118Z,31.30
2017-09-22T20:47:53.697Z,34.28
2017-09-22T20:50:22.183Z,32.55
2017-09-22T20:52:50.543Z,33.47
2017-09-22T20:55:18.957Z,30.73
2017-09-22T20:57:46.761Z,29.63
2017-09-22T21:00:14.366Z,27.23
2017-09-22T21:02:41.990Z,24.73
2017-09-22T21:05:09.587Z,27.80
2017-09-22T21:07:37.182Z,25.23
2017-09-22T21:10:04.814Z,25.30
2017-09-22T21:12:32.558Z,30.05
2017-09-22T21:15:00.934Z,33.55
2017-09-22T21:17:29.337Z,26.05
2017-09-22T21:19:57.074Z,30.15
2017-09-22T21:22:25.430Z,29.63
2017-09-22T21:24:53.215Z,28.42
2017-09-22T21:27:21.574Z,25.48
2017-09-22T21:29:49.467Z,25.67
2017-09-22T21:32:17.083Z,22.55
2017-09-22T21:34:44.674Z,28.38
2017-09-22T21:37:13.021Z,31.37
2017-09-22T21:39:40.813Z,29.73
2017-09-22T21:42:09.170Z,26.73
2017-09-22T21:44:36.755Z,31.30
2017-09-22T21:47:05.158Z,26.33
2017-09-22T21:49:32.896Z,54.42
2017-09-22T21:52:01.254Z,65.55
2017-09-22T21:54:28.898Z,26.02
2017-09-22T21:56:56.486Z,26.00
2017-09-22T21:59:24.169Z,28.35
2017-09-22T22:01:51.782Z,37.85
2017-09-22T22:04:25.106Z,31.15
2017-09-22T22:06:59.138Z,30.10
2017-09-22T22:09:26.725Z,29.80
2017-09-22T22:11:54.315Z,30.27
2017-09-22T22:14:22.693Z,34.92
2017-09-22T22:16:50.338Z,28.12
2017-09-22T22:19:17.925Z,34.50
2017-09-22T22:21:46.279Z,32.03
2017-09-22T22:24:13.922Z,28.80
2017-09-22T22:26:41.519Z,35.20
2017-09-22T22:29:09.878Z,32.15
